Time;durP1;ratioP1;P1;durP2;ratioP2;P2;SDS_P1;SDS_P2;PMS_P1;PMS_P2;Temp;Humidity;BMP_temperature;BMP_pressure;BME280_temperature;BME280_humidity;BME280_pressure;Samples;Min_cycle;Max_cycle;Signal;HPM_P1;HPM_P2
2022/08/06 00:01:54;;;;;;;3.60;1.10;;;;;;;11.07;90.52;101710.00;6023924;28;20386;-63
2022/08/06 00:04:50;;;;;;;2.15;1.02;;;;;;;11.93;92.62;101712.53;6022609;28;20057;-63
2022/08/06 00:07:46;;;;;;;2.83;1.17;;;;;;;12.14;89.40;101715.19;6022302;28;20061;-64
2022/08/06 00:10:42;;;;;;;1.80;1.00;;;;;;;12.43;88.11;101729.50;6020294;28;20046;-64
2022/08/06 00:13:37;;;;;;;3.60;1.15;;;;;;;12.14;86.68;101739.13;6022899;28;20034;-63
2022/08/06 00:16:32;;;;;;;3.40;1.23;;;;;;;11.60;86.25;101740.13;6023239;28;20057;-64
2022/08/06 00:19:28;;;;;;;2.88;1.20;;;;;;;11.20;87.13;101729.25;6021943;28;20053;-63
2022/08/06 00:22:23;;;;;;;2.25;1.25;;;;;;;10.96;89.11;101735.72;6021478;28;20596;-64
2022/08/06 00:25:18;;;;;;;5.20;1.13;;;;;;;11.06;91.17;101734.03;6024353;28;20038;-64
2022/08/06 00:28:14;;;;;;;3.83;1.20;;;;;;;11.06;90.24;101739.34;6022685;28;20080;-63
2022/08/06 00:31:09;;;;;;;3.03;1.10;;;;;;;10.89;90.93;101737.19;6021745;28;20034;-63
2022/08/06 00:34:05;;;;;;;1.98;1.10;;;;;;;11.22;91.48;101731.81;6022120;28;20046;-64
2022/08/06 00:37:00;;;;;;;4.15;1.08;;;;;;;11.23;91.38;101730.81;6021105;28;20057;-63
2022/08/06 00:39:56;;;;;;;3.60;1.20;;;;;;;11.07;90.74;101736.53;6020916;28;20125;-63
2022/08/06 00:42:51;;;;;;;1.73;1.20;;;;;;;10.98;91.74;101731.16;6020794;28;20033;-63
2022/08/06 00:45:47;;;;;;;1.85;1.05;;;;;;;10.87;92.23;101745.25;6020799;28;20117;-63
2022/08/06 00:48:43;;;;;;;3.90;1.02;;;;;;;11.11;92.27;101747.75;6020403;28;20046;-63
2022/08/06 00:51:39;;;;;;;3.08;1.23;;;;;;;11.18;91.89;101754.25;6022613;28;20031;-64
2022/08/06 00:54:34;;;;;;;3.13;1.13;;;;;;;11.38;90.77;101756.16;6019745;28;20122;-64
2022/08/06 00:57:30;;;;;;;2.20;1.13;;;;;;;11.71;91.72;101753.38;6018321;28;20086;-63
2022/08/06 01:00:25;;;;;;;3.60;1.00;;;;;;;11.57;89.38;101744.84;6020274;28;20061;-64
2022/08/06 01:03:21;;;;;;;2.85;1.02;;;;;;;11.53;89.21;101756.69;6019089;28;20289;-63
2022/08/06 01:06:16;;;;;;;2.30;1.00;;;;;;;11.31;89.44;101750.47;6019600;28;20173;-64
2022/08/06 01:09:11;;;;;;;2.27;1.37;;;;;;;11.58;89.37;101752.66;6022682;28;20462;-63
2022/08/06 01:12:07;;;;;;;1.90;1.23;;;;;;;11.56;89.38;101749.31;6018056;28;20667;-64
2022/08/06 01:15:06;;;;;;;2.42;1.00;;;;;;;11.62;90.31;101759.44;6019772;28;20062;-63
2022/08/06 01:18:27;;;;;;;2.00;1.00;;;;;;;11.60;90.32;101769.34;6022954;28;20411;-63
2022/08/06 01:22:01;;;;;;;5.18;2.03;;;;;;;11.77;90.46;101783.91;6020962;28;20069;-63
2022/08/06 01:25:14;;;;;;;3.22;1.30;;;;;;;11.80;91.36;101781.84;6018145;28;20498;-64
2022/08/06 01:28:15;;;;;;;3.67;1.13;;;;;;;11.75;90.02;101776.06;6020354;28;20061;-63
2022/08/06 01:31:14;;;;;;;3.10;1.23;;;;;;;11.69;90.86;101770.41;6014155;28;20453;-64
2022/08/06 01:34:17;;;;;;;3.55;1.00;;;;;;;11.58;90.79;101789.00;6015906;28;20816;-64
2022/08/06 01:37:17;;;;;;;2.28;1.30;;;;;;;11.37;90.72;101781.00;6022798;28;20064;-64
2022/08/06 01:40:17;;;;;;;1.95;1.02;;;;;;;11.52;92.31;101769.13;6020801;28;20125;-65
2022/08/06 01:43:17;;;;;;;2.83;1.20;;;;;;;11.63;91.33;101779.69;6018353;28;20061;-65
2022/08/06 01:46:14;;;;;;;3.78;1.27;;;;;;;11.71;91.23;101774.63;6021906;28;20045;-64
2022/08/06 01:49:10;;;;;;;2.45;1.30;;;;;;;11.83;91.58;101784.25;6021259;28;20070;-64
2022/08/06 01:52:07;;;;;;;2.78;1.40;;;;;;;11.43;90.35;101791.13;6019474;28;20061;-64
2022/08/06 01:55:05;;;;;;;2.40;1.35;;;;;;;11.67;91.03;101786.47;6035610;28;20037;-65
2022/08/06 01:58:03;;;;;;;4.03;1.60;;;;;;;11.45;90.42;101788.34;6021340;28;20101;-64
2022/08/06 02:01:02;;;;;;;2.22;1.15;;;;;;;11.33;91.04;101792.84;6014958;28;20533;-66
2022/08/06 02:03:59;;;;;;;2.70;1.10;;;;;;;11.64;91.42;101783.19;6018310;28;20744;-65
2022/08/06 02:06:56;;;;;;;2.17;1.23;;;;;;;11.64;91.69;101800.00;6022556;28;20042;-63
2022/08/06 02:09:52;;;;;;;4.35;1.40;;;;;;;11.56;90.83;101796.28;6014695;28;20038;-63
2022/08/06 02:12:47;;;;;;;2.58;1.20;;;;;;;11.60;91.06;101785.28;6017783;28;20041;-64
2022/08/06 02:15:43;;;;;;;2.72;1.35;;;;;;;11.46;90.58;101790.03;6015075;28;20037;-63
2022/08/06 02:18:42;;;;;;;2.33;1.38;;;;;;;11.23;91.26;101791.88;6020815;28;20030;-63
2022/08/06 02:21:38;;;;;;;5.30;1.23;;;;;;;11.11;91.74;101782.28;6019523;28;20117;-63
2022/08/06 02:24:36;;;;;;;3.83;1.30;;;;;;;10.88;92.10;101783.25;6035929;28;20486;-64
2022/08/06 02:27:32;;;;;;;2.15;1.30;;;;;;;10.77;92.75;101797.38;6036856;28;20039;-63
2022/08/06 02:30:32;;;;;;;3.40;1.25;;;;;;;10.60;93.13;101782.78;6029654;28;20045;-64
2022/08/06 02:33:28;;;;;;;7.18;2.17;;;;;;;10.85;93.90;101780.84;6019622;28;20038;-63
2022/08/06 02:36:34;;;;;;;3.70;1.27;;;;;;;11.23;94.37;101791.88;6033426;28;20390;-63
2022/08/06 02:39:35;;;;;;;4.22;1.40;;;;;;;11.24;93.44;101790.94;6032966;28;20122;-63
2022/08/06 02:42:32;;;;;;;2.90;1.30;;;;;;;11.24;92.11;101790.94;6031336;28;20047;-63
2022/08/06 02:45:33;;;;;;;3.00;1.40;;;;;;;11.09;92.51;101802.78;6036234;28;20038;-64
2022/08/06 02:48:34;;;;;;;2.83;1.40;;;;;;;11.02;92.75;101801.59;6025054;28;20037;-64
2022/08/06 02:51:34;;;;;;;2.40;1.30;;;;;;;11.13;94.10;101809.53;6023381;28;20034;-63
2022/08/06 02:54:34;;;;;;;;;;;;;;;11.12;92.99;101805.19;6024897;28;21588;-63
2022/08/06 02:57:32;;;;;;;3.88;1.30;;;;;;;11.17;93.15;101811.00;6019776;28;19913;-63
2022/08/06 03:00:29;;;;;;;1.85;1.10;;;;;;;10.91;92.39;101801.59;6019090;28;20462;-63
2022/08/06 03:03:25;;;;;;;3.95;1.38;;;;;;;11.36;93.53;101814.69;6020327;28;20038;-63
2022/08/06 03:06:23;;;;;;;2.42;1.17;;;;;;;11.10;93.21;101815.94;6022041;28;20031;-63
2022/08/06 03:09:19;;;;;;;5.25;1.15;;;;;;;10.87;92.85;101802.81;6040275;28;20033;-63
2022/08/06 03:12:15;;;;;;;2.85;1.27;;;;;;;10.58;93.30;101819.19;6015374;28;20117;-64
2022/08/06 03:15:11;;;;;;;3.22;1.33;;;;;;;10.79;94.23;101816.66;6022595;28;20046;-63
2022/08/06 03:18:07;;;;;;;3.28;1.30;;;;;;;10.97;94.59;101827.66;6035766;28;20462;-64
2022/08/06 03:21:03;;;;;;;2.00;1.30;;;;;;;11.08;94.01;101832.97;6025742;28;20062;-63
2022/08/06 03:23:59;;;;;;;1.70;1.13;;;;;;;11.12;93.32;101840.53;6021944;28;20026;-63
2022/08/06 03:26:57;;;;;;;2.72;1.38;;;;;;;10.94;92.84;101844.66;6024882;28;20030;-63
2022/08/06 03:29:53;;;;;;;5.05;1.50;;;;;;;11.19;93.43;101827.63;6024579;28;20042;-63
2022/08/06 03:32:49;;;;;;;1.90;1.10;;;;;;;11.26;92.50;101844.75;6017967;28;20049;-64
2022/08/06 03:35:45;;;;;;;2.28;1.33;;;;;;;10.99;92.35;101841.63;6025405;28;20480;-63
2022/08/06 03:38:49;;;;;;;1.77;1.17;;;;;;;10.99;92.41;101846.94;6023241;28;20026;-63
2022/08/06 03:41:45;;;;;;;1.98;1.20;;;;;;;10.44;92.58;101850.38;6038812;28;20162;-63
2022/08/06 03:44:40;;;;;;;2.83;1.42;;;;;;;10.33;93.69;101859.16;6016289;28;20381;-63
2022/08/06 03:47:46;;;;;;;3.07;1.20;;;;;;;10.27;94.40;101867.59;6024277;28;20057;-63
2022/08/06 03:50:43;;;;;;;2.50;1.40;;;;;;;10.23;95.15;101855.50;6021555;28;20041;-63
2022/08/06 03:53:40;;;;;;;4.00;1.63;;;;;;;10.36;95.75;101861.56;6020287;28;20497;-63
2022/08/06 03:56:37;;;;;;;2.42;1.30;;;;;;;10.35;96.15;101875.81;6039446;28;20038;-63
2022/08/06 03:59:32;;;;;;;3.80;1.55;;;;;;;10.23;95.97;101879.38;6014233;28;20067;-63
2022/08/06 04:02:36;;;;;;;2.80;1.40;;;;;;;10.29;96.10;101878.91;6033601;28;20050;-63
2022/08/06 04:05:33;;;;;;;5.47;2.55;;;;;;;10.40;96.26;101886.91;6017701;28;20038;-63
2022/08/06 04:08:29;;;;;;;4.63;1.52;;;;;;;10.91;96.30;101879.41;6024083;28;20041;-64
2022/08/06 04:11:25;;;;;;;2.42;1.40;;;;;;;10.81;94.79;101890.84;6034322;28;20098;-63
2022/08/06 04:14:23;;;;;;;7.55;1.65;;;;;;;11.04;94.63;101900.50;6024023;28;20617;-64
2022/08/06 04:17:20;;;;;;;4.05;2.30;;;;;;;11.05;93.49;101903.06;6037507;28;20537;-64
2022/08/06 04:20:18;;;;;;;2.30;1.40;;;;;;;10.92;93.01;101901.47;6020864;28;20109;-63
2022/08/06 04:23:14;;;;;;;3.47;1.55;;;;;;;10.73;93.25;101905.53;6038549;28;20361;-64
2022/08/06 04:26:12;;;;;;;4.00;1.60;;;;;;;10.74;92.37;101917.84;6036880;28;20034;-64
2022/08/06 04:29:11;;;;;;;3.00;1.25;;;;;;;10.70;92.45;101903.13;6022365;28;20088;-64
2022/08/06 04:32:07;;;;;;;2.67;1.40;;;;;;;10.92;93.16;101904.13;6016665;28;20096;-64
2022/08/06 04:35:05;;;;;;;2.67;1.20;;;;;;;10.94;91.76;101910.16;6026948;28;20077;-63
2022/08/06 04:38:00;;;;;;;2.35;1.30;;;;;;;11.25;91.39;101918.25;6026975;28;21423;-64
2022/08/06 04:40:56;;;;;;;3.60;1.42;;;;;;;11.23;90.17;101928.16;6015756;28;20038;-64
2022/08/06 04:43:52;;;;;;;4.93;1.30;;;;;;;11.54;90.27;101921.28;6019283;28;20389;-64
2022/08/06 04:46:48;;;;;;;2.90;1.27;;;;;;;11.91;88.84;101927.13;6035534;28;20030;-63
2022/08/06 04:49:43;;;;;;;2.53;1.40;;;;;;;12.59;87.49;101940.06;6006424;28;20034;-64
2022/08/06 04:52:39;;;;;;;3.60;1.38;;;;;;;12.89;85.80;101933.94;6021989;28;20117;-64
2022/08/06 04:55:34;;;;;;;2.92;1.30;;;;;;;13.13;82.37;101959.34;6018286;28;20462;-63
2022/08/06 04:58:30;;;;;;;3.80;1.27;;;;;;;13.81;79.74;101952.47;6019883;28;20112;-64
2022/08/06 05:01:25;;;;;;;2.50;1.07;;;;;;;14.18;78.92;101953.56;6018298;28;20053;-64
2022/08/06 05:04:20;;;;;;;2.90;1.00;;;;;;;14.05;76.89;101955.63;6014847;28;20392;-63
2022/08/06 05:07:19;;;;;;;4.87;1.27;;;;;;;13.99;78.02;101961.53;6014248;28;20040;-63
2022/08/06 05:10:15;;;;;;;4.18;1.40;;;;;;;14.60;75.67;101956.81;6018456;28;20277;-63
2022/08/06 05:13:12;;;;;;;2.63;1.20;;;;;;;14.86;73.82;101954.41;6021760;28;20047;-63
2022/08/06 05:16:09;;;;;;;3.85;1.50;;;;;;;14.44;73.79;101966.34;6015693;28;20030;-64
2022/08/06 05:19:09;;;;;;;5.28;1.25;;;;;;;15.07;73.61;101971.09;6018562;28;20047;-64
2022/08/06 05:22:06;;;;;;;2.58;1.17;;;;;;;15.06;73.13;101972.06;6017400;28;20458;-63
2022/08/06 05:25:01;;;;;;;3.63;1.20;;;;;;;15.27;71.88;101971.88;6018647;28;20034;-64
2022/08/06 05:27:58;;;;;;;1.95;1.00;;;;;;;15.66;70.96;101976.09;6020289;28;20638;-63
2022/08/06 05:30:55;;;;;;;4.43;1.20;;;;;;;15.52;72.25;101984.59;6019409;28;20034;-64
2022/08/06 05:33:50;;;;;;;2.80;1.40;;;;;;;15.83;71.07;101988.69;6021014;28;20054;-64
2022/08/06 05:36:46;;;;;;;3.83;1.47;;;;;;;15.94;69.24;101976.94;6021609;28;20452;-63
2022/08/06 05:39:41;;;;;;;4.93;1.30;;;;;;;15.92;69.51;101973.59;6023134;28;20092;-63
2022/08/06 05:42:36;;;;;;;2.63;1.00;;;;;;;16.29;68.75;101979.69;6022578;28;20034;-63
2022/08/06 05:45:32;;;;;;;2.53;1.03;;;;;;;16.23;71.02;101980.28;6023595;28;20394;-63
2022/08/06 05:48:30;;;;;;;4.38;1.10;;;;;;;16.88;67.17;101992.44;6022122;28;20277;-63
2022/08/06 05:52:07;;;;;;;3.92;1.27;;;;;;;16.81;67.17;101996.75;6021196;28;20042;-64
2022/08/06 05:55:11;;;;;;;1.58;0.80;;;;;;;17.36;65.69;101991.13;6003727;28;20045;-64
2022/08/06 05:58:12;;;;;;;2.03;0.98;;;;;;;17.89;63.26;101998.94;6022317;28;20465;-62
2022/08/06 06:01:07;;;;;;;2.13;0.93;;;;;;;17.75;62.36;101987.81;6022297;28;20084;-63
2022/08/06 06:04:03;;;;;;;4.32;1.27;;;;;;;17.47;64.24;102004.25;6023060;28;20607;-64
2022/08/06 06:07:00;;;;;;;5.22;1.02;;;;;;;17.37;64.85;102006.19;6022854;28;20050;-64
2022/08/06 06:09:55;;;;;;;2.72;1.15;;;;;;;17.72;64.65;102009.59;6014469;28;20047;-64
2022/08/06 06:12:51;;;;;;;1.10;0.90;;;;;;;17.67;64.62;102006.56;6022326;28;20065;-63
2022/08/06 06:15:51;;;;;;;3.17;0.93;;;;;;;17.69;63.51;101999.19;6022681;28;20030;-63
2022/08/06 06:19:02;;;;;;;4.97;1.20;;;;;;;17.08;64.76;102006.50;6019660;28;20038;-64
2022/08/06 06:22:12;;;;;;;1.75;1.10;;;;;;;17.11;65.89;102022.28;6022147;28;20041;-63
2022/08/06 06:25:15;;;;;;;2.28;1.38;;;;;;;17.66;64.61;102021.00;6021277;28;20034;-64
2022/08/06 06:28:22;;;;;;;1.98;1.10;;;;;;;17.65;64.07;102007.72;6021278;28;20085;-63
2022/08/06 06:31:23;;;;;;;2.67;1.45;;;;;;;17.31;64.84;102014.91;6021958;28;20037;-63
2022/08/06 06:34:23;;;;;;;4.10;1.35;;;;;;;17.61;64.03;102025.97;6022290;28;20192;-63
2022/08/06 06:37:37;;;;;;;1.83;1.13;;;;;;;17.23;66.48;102021.00;6037256;28;20072;-63
2022/08/06 06:40:57;;;;;;;4.65;1.25;;;;;;;17.00;67.01;102027.91;6021545;28;20033;-63
2022/08/06 06:43:55;;;;;;;2.67;1.23;;;;;;;17.50;66.21;102026.22;6021275;28;20038;-64
2022/08/06 06:46:58;;;;;;;3.38;1.17;;;;;;;17.84;64.68;102024.44;6022364;28;20026;-64
2022/08/06 06:50:00;;;;;;;1.73;0.98;;;;;;;17.99;64.44;102027.34;6036964;28;20042;-64
2022/08/06 06:52:56;;;;;;;4.00;1.30;;;;;;;17.80;65.20;102025.75;6020730;28;20204;-62
2022/08/06 06:55:53;;;;;;;2.22;1.00;;;;;;;17.38;63.86;102016.78;6020680;28;20045;-63
2022/08/06 06:59:13;;;;;;;4.20;1.20;;;;;;;17.46;65.18;102030.25;6021981;28;20038;-62
2022/08/06 07:02:19;;;;;;;4.10;1.08;;;;;;;17.38;65.58;102019.47;6019788;28;20035;-63
2022/08/06 07:05:15;;;;;;;3.03;1.10;;;;;;;17.49;67.36;102032.59;6015766;28;20446;-62
2022/08/06 07:08:13;;;;;;;3.17;1.27;;;;;;;18.56;61.25;102027.53;6020546;28;20038;-63
2022/08/06 07:11:09;;;;;;;2.70;1.05;;;;;;;17.87;63.84;102022.44;6012892;28;20478;-64
2022/08/06 07:14:04;;;;;;;2.63;0.90;;;;;;;18.05;64.36;102029.38;6018214;28;20035;-63
2022/08/06 07:17:02;;;;;;;2.53;0.85;;;;;;;18.04;62.99;102040.28;6020798;28;20129;-62
2022/08/06 07:20:00;;;;;;;5.07;1.05;;;;;;;18.22;62.90;102039.19;6021637;28;20029;-64
2022/08/06 07:23:08;;;;;;;3.22;0.80;;;;;;;17.95;62.92;102042.09;6020287;28;20422;-63
2022/08/06 07:26:04;;;;;;;1.60;0.68;;;;;;;17.77;62.21;102047.53;6021900;28;20031;-64
2022/08/06 07:29:01;;;;;;;3.30;1.05;;;;;;;17.70;63.82;102046.50;6021884;28;20118;-63
2022/08/06 07:31:58;;;;;;;1.83;0.70;;;;;;;17.89;63.53;102044.56;6024662;28;20473;-63
2022/08/06 07:34:53;;;;;;;1.30;0.77;;;;;;;18.27;61.37;102046.72;6023687;28;20034;-64
2022/08/06 07:37:53;;;;;;;3.83;1.40;;;;;;;18.19;62.85;102046.72;6021070;28;20026;-62
2022/08/06 07:40:52;;;;;;;1.55;0.50;;;;;;;18.27;60.76;102062.84;6024217;28;20072;-63
2022/08/06 07:43:52;;;;;;;2.13;0.73;;;;;;;18.23;60.88;102056.13;6017423;28;20414;-63
2022/08/06 07:46:51;;;;;;;1.20;0.60;;;;;;;18.63;60.45;102063.47;6024722;28;20113;-62
2022/08/06 07:49:50;;;;;;;2.00;0.60;;;;;;;18.69;59.87;102046.69;6025772;28;20034;-63
2022/08/06 07:52:45;;;;;;;3.13;0.60;;;;;;;19.16;58.99;102060.34;6022818;28;20080;-63
2022/08/06 07:55:43;;;;;;;1.33;0.50;;;;;;;19.65;56.84;102064.63;6026042;28;20030;-64
2022/08/06 07:58:38;;;;;;;2.13;0.50;;;;;;;19.27;56.65;102070.75;6040691;28;20038;-63
2022/08/06 08:01:34;;;;;;;2.93;0.60;;;;;;;18.24;58.21;102073.91;6040499;28;20053;-64
2022/08/06 08:07:45;;;;;;;2.08;0.77;;;;;;;19.10;56.69;102079.81;6038714;28;20548;-63
2022/08/06 08:10:41;;;;;;;1.38;0.60;;;;;;;18.75;57.22;102079.09;6039843;28;20026;-62
2022/08/06 08:13:37;;;;;;;1.88;0.60;;;;;;;18.82;58.13;102072.09;6040365;28;20076;-63
2022/08/06 08:16:32;;;;;;;1.08;0.60;;;;;;;19.24;57.18;102084.53;6025494;28;20378;-64
2022/08/06 08:19:33;;;;;;;2.28;0.80;;;;;;;20.23;54.60;102068.81;6025022;28;20057;-63
2022/08/06 08:22:29;;;;;;;2.60;0.50;;;;;;;20.17;54.02;102071.19;6024702;28;20034;-63
2022/08/06 08:25:24;;;;;;;2.33;0.97;;;;;;;19.27;54.52;102063.50;6024903;28;20038;-62
2022/08/06 08:28:19;;;;;;;1.00;0.40;;;;;;;19.28;55.15;102065.19;6024862;28;20026;-64
2022/08/06 08:31:14;;;;;;;1.87;0.53;;;;;;;19.11;56.55;102076.97;6024056;28;20112;-63
2022/08/06 08:34:11;;;;;;;1.63;0.50;;;;;;;20.02;54.44;102078.34;6024976;28;20113;-63
2022/08/06 08:37:06;;;;;;;1.88;0.75;;;;;;;20.58;49.91;102082.63;6024761;28;20273;-63
2022/08/06 08:40:03;;;;;;;1.33;0.40;;;;;;;20.18;51.05;102070.19;6023545;28;20049;-63
2022/08/06 08:42:58;;;;;;;1.90;0.50;;;;;;;19.40;53.78;102081.88;6024442;28;20235;-64
2022/08/06 08:45:54;;;;;;;1.58;0.60;;;;;;;19.16;55.08;102079.97;6018811;28;20141;-63
2022/08/06 08:48:49;;;;;;;1.35;0.50;;;;;;;19.14;55.97;102089.22;6024648;28;20030;-63
2022/08/06 08:51:45;;;;;;;1.60;0.50;;;;;;;19.12;55.28;102092.09;6022608;28;20496;-63
2022/08/06 08:54:43;;;;;;;2.78;0.63;;;;;;;19.14;55.78;102090.06;6024091;28;20030;-62
2022/08/06 08:57:38;;;;;;;0.45;0.35;;;;;;;19.64;52.98;102095.28;6024352;28;20544;-62
2022/08/06 09:00:34;;;;;;;1.95;0.60;;;;;;;19.29;53.01;102098.31;6023350;28;20125;-63
2022/08/06 09:03:29;;;;;;;0.90;0.47;;;;;;;19.60;53.21;102085.84;6024370;28;20037;-63
2022/08/06 09:06:25;;;;;;;1.67;0.60;;;;;;;20.39;51.14;102088.47;6022972;28;20116;-64
2022/08/06 09:09:21;;;;;;;3.50;0.60;;;;;;;20.72;49.60;102072.94;6024055;28;20359;-64
2022/08/06 09:12:16;;;;;;;3.58;0.60;;;;;;;20.70;50.60;102083.06;6019822;28;20030;-64
2022/08/06 09:15:12;;;;;;;2.03;0.50;;;;;;;20.96;49.25;102086.25;6023422;28;20034;-63
2022/08/06 09:18:07;;;;;;;0.88;0.43;;;;;;;21.10;49.07;102087.34;6023999;28;20027;-64
2022/08/06 09:21:03;;;;;;;6.03;0.67;;;;;;;21.21;49.40;102087.78;6023136;28;20457;-65
2022/08/06 09:23:59;;;;;;;2.45;0.70;;;;;;;20.95;47.87;102087.28;6023568;28;20335;-63
2022/08/06 09:27:24;;;;;;;0.32;0.30;;;;;;;20.14;49.63;102095.78;6023776;28;20382;-63
2022/08/06 09:30:19;;;;;;;1.15;0.50;;;;;;;19.57;51.83;102081.66;6009041;28;20039;-63
2022/08/06 09:33:15;;;;;;;1.65;0.60;;;;;;;19.25;51.65;102089.75;6023690;28;20026;-64
2022/08/06 09:36:12;;;;;;;3.00;0.60;;;;;;;19.87;50.86;102076.53;6023481;28;20034;-63
2022/08/06 09:39:07;;;;;;;0.75;0.43;;;;;;;20.51;48.26;102078.13;6023564;28;20066;-63
2022/08/06 09:42:03;;;;;;;2.43;0.50;;;;;;;21.59;45.41;102076.94;6022795;28;20038;-63
2022/08/06 09:45:06;;;;;;;1.33;0.35;;;;;;;22.32;45.70;102091.31;6023493;28;20034;-64
2022/08/06 09:48:06;;;;;;;2.17;0.50;;;;;;;22.29;44.08;102086.28;6023315;28;20034;-64
2022/08/06 09:51:01;;;;;;;1.40;0.50;;;;;;;21.16;46.84;102092.03;6022366;28;20430;-63
2022/08/06 09:53:58;;;;;;;3.03;0.60;;;;;;;20.38;46.71;102092.19;6022491;28;20053;-64
2022/08/06 09:56:59;;;;;;;1.13;0.50;;;;;;;20.04;48.00;102095.16;6023104;28;20264;-64
2022/08/06 09:59:55;;;;;;;2.17;0.40;;;;;;;19.64;48.69;102095.28;6023242;28;20528;-64
2022/08/06 10:02:55;;;;;;;5.13;0.67;;;;;;;19.65;47.42;102090.75;6022462;28;20034;-64
2022/08/06 10:06:04;;;;;;;1.45;0.35;;;;;;;20.39;46.89;102095.72;6023087;28;20041;-64
2022/08/06 10:09:10;;;;;;;0.77;0.40;;;;;;;21.00;45.72;102090.28;6022919;28;20374;-63
2022/08/06 10:12:26;;;;;;;2.13;0.57;;;;;;;21.37;45.76;102094.88;6022432;28;20734;-64
2022/08/06 10:15:29;;;;;;;1.08;0.30;;;;;;;21.56;44.33;102082.72;6022359;28;20050;-63
2022/08/06 10:18:38;;;;;;;0.98;0.22;;;;;;;21.29;45.54;102093.09;6022424;28;20054;-63
2022/08/06 10:21:34;;;;;;;3.30;0.40;;;;;;;20.81;46.06;102088.06;6021835;28;20037;-62
2022/08/06 10:24:31;;;;;;;1.98;0.50;;;;;;;20.56;46.48;102094.63;6022327;28;20026;-63
2022/08/06 10:27:36;;;;;;;2.88;0.43;;;;;;;21.25;45.59;102091.78;6022349;28;20038;-64
2022/08/06 10:30:31;;;;;;;0.98;0.35;;;;;;;21.99;44.64;102078.41;6021340;28;20470;-65
2022/08/06 10:33:28;;;;;;;0.77;0.47;;;;;;;22.25;39.54;102089.56;6022213;28;20039;-64
2022/08/06 10:36:59;;;;;;;2.20;0.50;;;;;;;21.68;42.33;102081.25;6017747;28;20081;-64
2022/08/06 10:39:59;;;;;;;1.95;0.38;;;;;;;21.58;42.11;102070.69;6009219;28;20049;-63
2022/08/06 10:42:55;;;;;;;0.88;0.50;;;;;;;21.60;43.42;102068.69;6020654;28;20030;-64
2022/08/06 10:45:51;;;;;;;0.63;0.40;;;;;;;22.22;45.58;102069.16;6022213;28;20049;-63
2022/08/06 10:48:49;;;;;;;2.80;0.60;;;;;;;22.34;41.31;102056.00;6037393;28;20060;-64
2022/08/06 10:51:44;;;;;;;1.95;0.28;;;;;;;22.36;40.22;102067.44;6012658;28;20035;-63
2022/08/06 10:54:40;;;;;;;2.28;0.85;;;;;;;22.54;40.70;102074.09;6019092;28;20034;-64
2022/08/06 10:57:38;;;;;;;1.17;0.32;;;;;;;22.92;40.54;102080.16;6021744;28;20022;-63
2022/08/06 11:00:33;;;;;;;2.42;0.40;;;;;;;22.94;39.38;102079.94;6021364;28;20054;-64
2022/08/06 11:03:51;;;;;;;5.47;0.43;;;;;;;23.49;38.14;102063.78;6022535;28;20169;-63
2022/08/06 11:06:56;;;;;;;1.10;0.40;;;;;;;23.36;38.06;102065.53;6019391;28;20391;-64
2022/08/06 11:10:09;;;;;;;2.38;0.70;;;;;;;22.51;40.69;102068.22;6026675;28;20038;-64
2022/08/06 11:13:11;;;;;;;0.30;0.30;;;;;;;21.77;40.83;102058.50;6026935;28;20454;-64
2022/08/06 11:16:07;;;;;;;0.22;0.22;;;;;;;21.05;42.90;102069.00;6018009;28;20503;-64
2022/08/06 11:19:07;;;;;;;0.73;0.40;;;;;;;20.45;46.01;102070.75;6023627;28;20077;-65
2022/08/06 11:22:02;;;;;;;2.92;0.80;;;;;;;20.28;44.72;102064.59;6025578;28;20038;-64
2022/08/06 11:24:58;;;;;;;1.30;0.60;;;;;;;21.04;43.80;102061.91;6024938;28;20616;-64
2022/08/06 11:27:56;;;;;;;1.70;0.40;;;;;;;21.77;41.05;102055.81;6026563;28;20689;-63
2022/08/06 11:30:53;;;;;;;3.30;0.32;;;;;;;22.39;39.61;102065.19;6025437;28;20034;-65
2022/08/06 11:33:48;;;;;;;2.80;0.50;;;;;;;23.05;37.95;102066.72;6026273;28;20125;-64
2022/08/06 11:36:55;;;;;;;0.37;0.20;;;;;;;23.16;37.25;102057.25;6026145;28;20454;-64
2022/08/06 11:40:09;;;;;;;1.80;0.35;;;;;;;23.68;36.50;102046.84;6026157;28;20053;-64
2022/08/06 11:43:04;;;;;;;1.65;0.50;;;;;;;23.79;35.66;102041.88;6025630;28;20034;-64
2022/08/06 11:46:21;;;;;;;2.38;0.30;;;;;;;24.07;34.94;102045.38;6025871;28;20070;-64
2022/08/06 11:49:18;;;;;;;0.47;0.30;;;;;;;23.86;36.75;102053.63;6025411;28;20533;-65
2022/08/06 11:52:42;;;;;;;0.68;0.40;;;;;;;23.14;38.24;102053.91;6024925;28;20416;-64
2022/08/06 11:56:04;;;;;;;2.00;0.43;;;;;;;22.34;39.18;102070.31;6016169;28;20049;-65
2022/08/06 11:59:13;;;;;;;0.30;0.20;;;;;;;22.66;39.84;102054.69;6025554;28;20035;-64
2022/08/06 12:02:10;;;;;;;0.60;0.30;;;;;;;22.50;39.46;102056.56;6024379;28;20536;-63
2022/08/06 12:05:07;;;;;;;1.60;0.38;;;;;;;22.18;37.61;102051.63;6025103;28;20076;-64
2022/08/06 12:08:20;;;;;;;0.98;0.40;;;;;;;21.77;37.25;102058.50;6024964;28;20026;-64
2022/08/06 12:11:29;;;;;;;7.00;1.00;;;;;;;21.81;37.50;102060.69;6024533;28;20055;-65
2022/08/06 12:14:41;;;;;;;1.02;0.30;;;;;;;21.80;38.41;102064.38;6024846;28;20035;-64
2022/08/06 12:17:37;;;;;;;0.90;0.30;;;;;;;21.48;37.94;102058.50;6023322;28;20085;-64
2022/08/06 12:20:37;;;;;;;1.38;0.43;;;;;;;21.84;37.00;102054.06;6023949;28;20459;-64
2022/08/06 12:23:33;;;;;;;1.83;0.45;;;;;;;22.50;35.53;102044.94;6025218;28;20483;-63
2022/08/06 12:26:32;;;;;;;2.03;0.40;;;;;;;22.70;34.53;102039.75;6019056;28;20622;-65
2022/08/06 12:29:30;;;;;;;0.20;0.15;;;;;;;21.97;37.02;102037.22;6025039;28;20030;-63
2022/08/06 12:32:31;;;;;;;3.30;0.43;;;;;;;21.84;37.73;102056.75;6024750;28;20061;-64
2022/08/06 12:35:27;;;;;;;0.40;0.40;;;;;;;21.42;38.05;102040.34;6024809;28;20113;-64
2022/08/06 12:38:25;;;;;;;0.75;0.17;;;;;;;20.97;38.76;102049.34;6023241;28;20480;-63
2022/08/06 12:41:20;;;;;;;0.43;0.30;;;;;;;20.87;39.94;102037.97;6023738;28;20063;-64
2022/08/06 12:44:31;;;;;;;1.80;0.53;;;;;;;20.91;40.93;102032.00;6024873;28;20050;-64
2022/08/06 12:47:26;;;;;;;1.17;0.50;;;;;;;20.87;39.24;102036.09;6024888;28;20377;-64
2022/08/06 12:50:21;;;;;;;2.33;0.50;;;;;;;20.80;39.45;102048.63;6024180;28;20038;-65
2022/08/06 12:53:18;;;;;;;0.98;0.60;;;;;;;21.64;38.69;102028.63;6024668;28;20266;-64
2022/08/06 12:56:14;;;;;;;0.30;0.30;;;;;;;22.23;38.49;102022.16;6024418;28;20037;-63
2022/08/06 12:59:12;;;;;;;1.88;0.25;;;;;;;23.44;35.48;102022.94;6024401;28;20030;-66
2022/08/06 13:02:07;;;;;;;0.88;0.40;;;;;;;24.35;34.46;102018.19;6018127;28;20113;-64
2022/08/06 13:05:03;;;;;;;0.57;0.30;;;;;;;24.82;32.18;102016.19;6024445;28;20030;-64
2022/08/06 13:07:58;;;;;;;1.17;0.55;;;;;;;24.61;33.57;102010.94;6023034;28;20821;-64
2022/08/06 13:10:56;;;;;;;2.13;0.50;;;;;;;24.53;35.57;102013.84;6022388;28;20027;-65
2022/08/06 13:13:51;;;;;;;1.48;0.40;;;;;;;23.17;35.46;102007.50;6024485;28;20062;-64
2022/08/06 13:16:48;;;;;;;0.17;0.17;;;;;;;22.67;36.82;102018.50;6023947;28;20040;-65
2022/08/06 13:19:52;;;;;;;1.00;0.30;;;;;;;22.99;37.52;102018.78;6023543;28;20027;-64
2022/08/06 13:22:51;;;;;;;0.63;0.30;;;;;;;23.44;34.64;102003.13;6023134;28;20533;-63
2022/08/06 13:25:50;;;;;;;0.20;0.17;;;;;;;23.00;35.37;102012.38;6023591;28;20077;-63
2022/08/06 13:29:06;;;;;;;0.95;0.32;;;;;;;22.38;35.45;102019.41;6022751;28;20041;-65
2022/08/06 13:32:08;;;;;;;1.20;0.50;;;;;;;22.07;37.48;102022.38;6022962;28;20054;-64
2022/08/06 13:35:10;;;;;;;0.63;0.30;;;;;;;21.99;38.98;102024.38;6023683;28;20034;-64
2022/08/06 13:38:05;;;;;;;1.00;0.25;;;;;;;21.76;37.42;102024.44;6023398;28;20030;-64
2022/08/06 13:41:01;;;;;;;1.77;0.30;;;;;;;21.86;37.11;102006.06;6022634;28;20031;-65
2022/08/06 13:43:57;;;;;;;2.50;0.30;;;;;;;21.88;38.08;102010.28;6023160;28;20061;-64
2022/08/06 13:46:52;;;;;;;0.30;0.30;;;;;;;21.95;39.67;102023.91;6023307;28;20034;-65
2022/08/06 13:49:47;;;;;;;0.67;0.23;;;;;;;22.37;38.70;102007.75;6023109;28;20038;-66
2022/08/06 13:52:43;;;;;;;0.50;0.30;;;;;;;22.53;38.23;102017.50;6022182;28;20085;-64
2022/08/06 13:55:42;;;;;;;2.33;0.33;;;;;;;22.37;36.52;102017.72;6023115;28;20041;-65